sensor_id;sensor_type;location;lat;lon;timestamp;pressure;altitude;pressure_sealevel;temperature;humidity
50302;BME280;36550;50.472;19.744;2022-08-19T00:01:11;97635.84;;;20.47;72.62
50302;BME280;36550;50.472;19.744;2022-08-19T00:03:58;97630.82;;;20.46;72.53
50302;BME280;36550;50.472;19.744;2022-08-19T00:06:45;97630.30;;;20.46;72.50
50302;BME280;36550;50.472;19.744;2022-08-19T00:09:30;97632.16;;;20.46;72.77
50302;BME280;36550;50.472;19.744;2022-08-19T00:12:15;97633.48;;;20.46;72.80
50302;BME280;36550;50.472;19.744;2022-08-19T00:14:59;97630.82;;;20.46;72.89
50302;BME280;36550;50.472;19.744;2022-08-19T00:17:45;97627.45;;;20.43;72.85
50302;BME280;36550;50.472;19.744;2022-08-19T00:20:30;97630.17;;;20.40;73.10
50302;BME280;36550;50.472;19.744;2022-08-19T00:23:14;97625.95;;;20.39;72.98
50302;BME280;36550;50.472;19.744;2022-08-19T00:25:58;97632.84;;;20.40;72.99
50302;BME280;36550;50.472;19.744;2022-08-19T00:28:43;97619.34;;;20.36;73.21
50302;BME280;36550;50.472;19.744;2022-08-19T00:31:27;97631.63;;;20.46;73.24
50302;BME280;36550;50.472;19.744;2022-08-19T00:34:13;97633.99;;;20.48;73.11
50302;BME280;36550;50.472;19.744;2022-08-19T00:36:58;97633.18;;;20.47;73.21
50302;BME280;36550;50.472;19.744;2022-08-19T00:39:43;97630.30;;;20.46;73.15
50302;BME280;36550;50.472;19.744;2022-08-19T00:42:27;97632.48;;;20.44;73.24
50302;BME280;36550;50.472;19.744;2022-08-19T00:45:16;97631.45;;;20.43;73.24
50302;BME280;36550;50.472;19.744;2022-08-19T00:48:01;97627.16;;;20.44;73.23
50302;BME280;36550;50.472;19.744;2022-08-19T00:50:50;97627.45;;;20.43;73.37
50302;BME280;36550;50.472;19.744;2022-08-19T00:53:37;97617.66;;;20.41;73.39
50302;BME280;36550;50.472;19.744;2022-08-19T00:56:21;97621.95;;;20.39;73.38
50302;BME280;36550;50.472;19.744;2022-08-19T00:59:05;97621.70;;;20.38;73.33
50302;BME280;36550;50.472;19.744;2022-08-19T01:01:53;97615.13;;;20.35;73.26
50302;BME280;36550;50.472;19.744;2022-08-19T01:04:37;97618.87;;;20.34;73.39
50302;BME280;36550;50.472;19.744;2022-08-19T01:07:21;97610.09;;;20.34;73.65
50302;BME280;36550;50.472;19.744;2022-08-19T01:10:09;97608.51;;;20.33;73.60
50302;BME280;36550;50.472;19.744;2022-08-19T01:12:58;97607.98;;;20.33;73.63
50302;BME280;36550;50.472;19.744;2022-08-19T01:15:45;97612.28;;;20.32;73.55
50302;BME280;36550;50.472;19.744;2022-08-19T01:18:38;97609.20;;;20.27;73.84
50302;BME280;36550;50.472;19.744;2022-08-19T01:24:16;97606.83;;;20.26;73.89
50302;BME280;36550;50.472;19.744;2022-08-19T01:27:05;97600.50;;;20.24;73.95
50302;BME280;36550;50.472;19.744;2022-08-19T01:29:50;97593.59;;;20.23;74.16
50302;BME280;36550;50.472;19.744;2022-08-19T01:32:34;97587.01;;;20.21;74.05
50302;BME280;36550;50.472;19.744;2022-08-19T01:35:19;97584.70;;;20.16;74.42
50302;BME280;36550;50.472;19.744;2022-08-19T01:38:04;97582.28;;;20.17;74.23
50302;BME280;36550;50.472;19.744;2022-08-19T01:40:52;97580.48;;;20.15;74.50
50302;BME280;36550;50.472;19.744;2022-08-19T01:43:37;97581.34;;;20.13;74.39
50302;BME280;36550;50.472;19.744;2022-08-19T01:46:22;97583.44;;;20.14;74.36
50302;BME280;36550;50.472;19.744;2022-08-19T01:49:06;97581.55;;;20.14;74.37
50302;BME280;36550;50.472;19.744;2022-08-19T01:51:52;97579.20;;;20.13;74.47
50302;BME280;36550;50.472;19.744;2022-08-19T01:54:37;97576.61;;;20.10;74.49
50302;BME280;36550;50.472;19.744;2022-08-19T01:57:21;97581.21;;;20.07;74.63
50302;BME280;36550;50.472;19.744;2022-08-19T02:00:09;97585.54;;;20.06;74.55
50302;BME280;36550;50.472;19.744;2022-08-19T02:02:55;97584.98;;;20.06;74.47
50302;BME280;36550;50.472;19.744;2022-08-19T02:05:41;97584.43;;;20.07;74.46
50302;BME280;36550;50.472;19.744;2022-08-19T02:08:27;97575.19;;;20.04;74.43
50302;BME280;36550;50.472;19.744;2022-08-19T02:11:31;97569.91;;;20.02;74.49
50302;BME280;36550;50.472;19.744;2022-08-19T02:14:14;97576.34;;;20.00;74.53
50302;BME280;36550;50.472;19.744;2022-08-19T02:16:59;97572.09;;;19.99;74.89
50302;BME280;36550;50.472;19.744;2022-08-19T02:19:43;97570.03;;;19.96;74.75
50302;BME280;36550;50.472;19.744;2022-08-19T02:22:27;97569.56;;;19.94;74.78
50302;BME280;36550;50.472;19.744;2022-08-19T02:25:13;97562.20;;;19.91;74.84
50302;BME280;36550;50.472;19.744;2022-08-19T02:27:58;97562.50;;;19.90;74.97
50302;BME280;36550;50.472;19.744;2022-08-19T02:30:42;97561.72;;;19.89;74.82
50302;BME280;36550;50.472;19.744;2022-08-19T02:33:26;97555.37;;;19.88;74.90
50302;BME280;36550;50.472;19.744;2022-08-19T02:36:12;97557.78;;;19.87;74.95
50302;BME280;36550;50.472;19.744;2022-08-19T02:38:57;97557.60;;;19.83;74.93
50302;BME280;36550;50.472;19.744;2022-08-19T02:41:42;97559.31;;;19.79;75.04
50302;BME280;36550;50.472;19.744;2022-08-19T02:44:26;97561.80;;;19.75;75.06
50302;BME280;36550;50.472;19.744;2022-08-19T02:47:12;97563.70;;;19.72;75.06
50302;BME280;36550;50.472;19.744;2022-08-19T02:49:57;97558.52;;;19.67;75.17
50302;BME280;36550;50.472;19.744;2022-08-19T02:52:42;97557.49;;;19.66;75.21
50302;BME280;36550;50.472;19.744;2022-08-19T02:55:26;97562.86;;;19.63;75.26
50302;BME280;36550;50.472;19.744;2022-08-19T02:58:10;97559.98;;;19.62;75.40
50302;BME280;36550;50.472;19.744;2022-08-19T03:00:56;97559.17;;;19.61;75.42
50302;BME280;36550;50.472;19.744;2022-08-19T03:03:40;97562.94;;;19.60;75.54
50302;BME280;36550;50.472;19.744;2022-08-19T03:06:25;97569.34;;;19.59;75.68
50302;BME280;36550;50.472;19.744;2022-08-19T03:09:10;97572.08;;;19.57;75.63
50302;BME280;36550;50.472;19.744;2022-08-19T03:11:55;97570.27;;;19.55;75.69
50302;BME280;36550;50.472;19.744;2022-08-19T03:14:39;97579.70;;;19.50;75.65
50302;BME280;36550;50.472;19.744;2022-08-19T03:17:23;97583.02;;;19.44;75.60
50302;BME280;36550;50.472;19.744;2022-08-19T03:20:08;97579.15;;;19.39;75.72
50302;BME280;36550;50.472;19.744;2022-08-19T03:22:52;97581.62;;;19.35;75.70
50302;BME280;36550;50.472;19.744;2022-08-19T03:25:39;97583.80;;;19.33;75.97
50302;BME280;36550;50.472;19.744;2022-08-19T03:28:26;97587.87;;;19.31;76.32
50302;BME280;36550;50.472;19.744;2022-08-19T03:31:12;97579.63;;;19.30;76.60
50302;BME280;36550;50.472;19.744;2022-08-19T03:33:57;97575.38;;;19.29;76.86
50302;BME280;36550;50.472;19.744;2022-08-19T03:36:41;97582.84;;;19.29;76.65
50302;BME280;36550;50.472;19.744;2022-08-19T03:39:26;97578.11;;;19.26;76.86
50302;BME280;36550;50.472;19.744;2022-08-19T03:42:11;97580.48;;;19.28;76.76
50302;BME280;36550;50.472;19.744;2022-08-19T03:44:56;97581.44;;;19.32;76.76
50302;BME280;36550;50.472;19.744;2022-08-19T03:47:40;97588.46;;;19.39;76.71
50302;BME280;36550;50.472;19.744;2022-08-19T03:50:24;97590.71;;;19.46;76.74
50302;BME280;36550;50.472;19.744;2022-08-19T03:53:08;97591.38;;;19.51;76.97
50302;BME280;36550;50.472;19.744;2022-08-19T03:55:53;97591.73;;;19.58;76.84
50302;BME280;36550;50.472;19.744;2022-08-19T03:58:39;97599.79;;;19.67;76.76
50302;BME280;36550;50.472;19.744;2022-08-19T04:01:26;97601.59;;;19.69;76.52
50302;BME280;36550;50.472;19.744;2022-08-19T04:04:11;97604.73;;;19.71;76.46
50302;BME280;36550;50.472;19.744;2022-08-19T04:06:56;97601.25;;;19.73;76.30
50302;BME280;36550;50.472;19.744;2022-08-19T04:09:41;97594.52;;;19.76;76.27
50302;BME280;36550;50.472;19.744;2022-08-19T04:12:25;97588.52;;;19.81;76.10
50302;BME280;36550;50.472;19.744;2022-08-19T04:15:10;97587.38;;;19.85;75.94
50302;BME280;36550;50.472;19.744;2022-08-19T04:17:54;97579.26;;;19.90;76.06
50302;BME280;36550;50.472;19.744;2022-08-19T04:20:46;97580.94;;;19.97;76.02
50302;BME280;36550;50.472;19.744;2022-08-19T04:23:32;97581.59;;;20.03;76.13
50302;BME280;36550;50.472;19.744;2022-08-19T04:26:24;97592.97;;;20.06;76.03
50302;BME280;36550;50.472;19.744;2022-08-19T04:29:10;97590.96;;;20.12;76.01
50302;BME280;36550;50.472;19.744;2022-08-19T04:31:57;97597.49;;;20.17;75.96
50302;BME280;36550;50.472;19.744;2022-08-19T04:34:42;97602.91;;;20.23;76.00
50302;BME280;36550;50.472;19.744;2022-08-19T04:37:27;97609.37;;;20.31;76.07
50302;BME280;36550;50.472;19.744;2022-08-19T04:40:13;97609.33;;;20.42;76.02
50302;BME280;36550;50.472;19.744;2022-08-19T04:43:16;97611.34;;;20.56;76.10
50302;BME280;36550;50.472;19.744;2022-08-19T04:46:09;97612.52;;;20.73;75.99
50302;BME280;36550;50.472;19.744;2022-08-19T04:48:54;97605.48;;;20.86;75.87
50302;BME280;36550;50.472;19.744;2022-08-19T04:51:42;97608.73;;;21.03;75.67
50302;BME280;36550;50.472;19.744;2022-08-19T04:54:28;97613.61;;;21.18;75.54
50302;BME280;36550;50.472;19.744;2022-08-19T04:57:13;97615.95;;;21.37;75.42
50302;BME280;36550;50.472;19.744;2022-08-19T04:59:57;97618.97;;;21.53;75.17
50302;BME280;36550;50.472;19.744;2022-08-19T05:02:42;97619.34;;;21.66;74.91
50302;BME280;36550;50.472;19.744;2022-08-19T05:05:26;97622.41;;;21.80;74.71
50302;BME280;36550;50.472;19.744;2022-08-19T05:08:11;97625.59;;;21.88;74.43
50302;BME280;36550;50.472;19.744;2022-08-19T05:10:56;97633.28;;;21.98;74.31
50302;BME280;36550;50.472;19.744;2022-08-19T05:13:41;97633.17;;;22.09;74.24
50302;BME280;36550;50.472;19.744;2022-08-19T05:16:27;97634.25;;;22.26;74.10
50302;BME280;36550;50.472;19.744;2022-08-19T05:19:13;97639.83;;;22.42;73.87
50302;BME280;36550;50.472;19.744;2022-08-19T05:22:16;97644.52;;;22.54;73.44
50302;BME280;36550;50.472;19.744;2022-08-19T05:25:19;97636.63;;;22.72;73.22
50302;BME280;36550;50.472;19.744;2022-08-19T05:28:04;97642.70;;;22.96;73.15
50302;BME280;36550;50.472;19.744;2022-08-19T05:30:48;97646.25;;;23.24;72.93
50302;BME280;36550;50.472;19.744;2022-08-19T05:33:35;97643.92;;;23.50;72.72
50302;BME280;36550;50.472;19.744;2022-08-19T05:36:19;97637.42;;;23.99;72.11
50302;BME280;36550;50.472;19.744;2022-08-19T05:39:04;97637.42;;;23.99;72.11
50302;BME280;36550;50.472;19.744;2022-08-19T05:41:56;97640.59;;;24.19;71.64
50302;BME280;36550;50.472;19.744;2022-08-19T05:44:43;97636.71;;;24.29;71.08
50302;BME280;36550;50.472;19.744;2022-08-19T05:47:28;97632.12;;;24.36;70.73
50302;BME280;36550;50.472;19.744;2022-08-19T05:50:12;97629.34;;;24.45;70.57
50302;BME280;36550;50.472;19.744;2022-08-19T05:52:57;97625.56;;;24.58;70.36
50302;BME280;36550;50.472;19.744;2022-08-19T05:55:41;97633.16;;;24.74;70.21
50302;BME280;36550;50.472;19.744;2022-08-19T05:58:26;97637.86;;;24.90;69.62
50302;BME280;36550;50.472;19.744;2022-08-19T06:01:12;97634.56;;;25.09;69.50
50302;BME280;36550;50.472;19.744;2022-08-19T06:03:58;97630.75;;;25.28;69.09
50302;BME280;36550;50.472;19.744;2022-08-19T06:06:42;97632.94;;;25.45;68.39
50302;BME280;36550;50.472;19.744;2022-08-19T06:09:27;97634.25;;;25.57;67.83
50302;BME280;36550;50.472;19.744;2022-08-19T06:12:11;97635.22;;;25.65;67.14
50302;BME280;36550;50.472;19.744;2022-08-19T06:14:55;97641.42;;;25.75;67.07
50302;BME280;36550;50.472;19.744;2022-08-19T06:17:40;97642.76;;;25.81;66.40
50302;BME280;36550;50.472;19.744;2022-08-19T06:20:25;97636.13;;;25.85;66.26
50302;BME280;36550;50.472;19.744;2022-08-19T06:23:09;97639.81;;;25.92;66.19
50302;BME280;36550;50.472;19.744;2022-08-19T06:25:54;97636.88;;;25.98;65.86
50302;BME280;36550;50.472;19.744;2022-08-19T06:28:38;97639.75;;;26.05;65.39
50302;BME280;36550;50.472;19.744;2022-08-19T06:31:29;97629.08;;;26.08;65.19
50302;BME280;36550;50.472;19.744;2022-08-19T06:34:12;97636.05;;;26.19;65.15
50302;BME280;36550;50.472;19.744;2022-08-19T06:36:59;97636.89;;;26.29;64.49
50302;BME280;36550;50.472;19.744;2022-08-19T06:39:47;97641.05;;;26.43;64.61
50302;BME280;36550;50.472;19.744;2022-08-19T06:42:32;97643.65;;;26.55;64.15
50302;BME280;36550;50.472;19.744;2022-08-19T06:45:16;97641.17;;;26.72;63.97
50302;BME280;36550;50.472;19.744;2022-08-19T06:48:02;97647.46;;;26.86;63.73
50302;BME280;36550;50.472;19.744;2022-08-19T06:50:46;97653.71;;;27.00;63.37
50302;BME280;36550;50.472;19.744;2022-08-19T06:53:32;97653.25;;;27.14;63.33
50302;BME280;36550;50.472;19.744;2022-08-19T06:56:19;97656.95;;;27.25;62.83
50302;BME280;36550;50.472;19.744;2022-08-19T06:59:08;97660.09;;;27.27;61.43
50302;BME280;36550;50.472;19.744;2022-08-19T07:01:56;97663.67;;;27.31;61.02
50302;BME280;36550;50.472;19.744;2022-08-19T07:04:41;97667.20;;;27.35;60.62
50302;BME280;36550;50.472;19.744;2022-08-19T07:07:25;97666.94;;;27.40;61.00
50302;BME280;36550;50.472;19.744;2022-08-19T07:10:09;97669.33;;;27.45;61.19
50302;BME280;36550;50.472;19.744;2022-08-19T07:12:53;97675.44;;;27.52;60.79
50302;BME280;36550;50.472;19.744;2022-08-19T07:15:38;97671.89;;;27.58;60.64
50302;BME280;36550;50.472;19.744;2022-08-19T07:18:23;97670.91;;;27.66;60.73
50302;BME280;36550;50.472;19.744;2022-08-19T07:21:16;97676.72;;;27.68;57.94
50302;BME280;36550;50.472;19.744;2022-08-19T07:24:03;97673.78;;;27.77;59.94
50302;BME280;36550;50.472;19.744;2022-08-19T07:26:48;97671.67;;;27.86;59.88
50302;BME280;36550;50.472;19.744;2022-08-19T07:29:34;97671.68;;;27.96;59.86
50302;BME280;36550;50.472;19.744;2022-08-19T07:32:19;97668.19;;;28.05;59.73
50302;BME280;36550;50.472;19.744;2022-08-19T07:35:04;97669.44;;;28.11;59.55
50302;BME280;36550;50.472;19.744;2022-08-19T07:37:49;97672.68;;;28.20;59.38
50302;BME280;36550;50.472;19.744;2022-08-19T07:40:33;97668.63;;;28.30;59.49
50302;BME280;36550;50.472;19.744;2022-08-19T07:43:17;97672.41;;;28.39;58.89
50302;BME280;36550;50.472;19.744;2022-08-19T07:46:03;97679.09;;;28.45;58.98
50302;BME280;36550;50.472;19.744;2022-08-19T07:48:49;97682.70;;;28.53;58.71
50302;BME280;36550;50.472;19.744;2022-08-19T07:51:35;97683.45;;;28.63;58.72
50302;BME280;36550;50.472;19.744;2022-08-19T07:54:20;97684.53;;;28.72;58.12
50302;BME280;36550;50.472;19.744;2022-08-19T07:57:06;97683.10;;;28.78;57.56
50302;BME280;36550;50.472;19.744;2022-08-19T07:59:51;97686.88;;;28.87;57.36
50302;BME280;36550;50.472;19.744;2022-08-19T08:02:35;97685.63;;;28.94;56.51
50302;BME280;36550;50.472;19.744;2022-08-19T08:05:20;97684.61;;;29.02;56.99
50302;BME280;36550;50.472;19.744;2022-08-19T08:08:23;97682.36;;;29.08;56.79
50302;BME280;36550;50.472;19.744;2022-08-19T08:11:19;97690.60;;;29.15;56.51
50302;BME280;36550;50.472;19.744;2022-08-19T08:14:05;97697.87;;;29.24;56.62
50302;BME280;36550;50.472;19.744;2022-08-19T08:16:52;97696.20;;;29.29;56.37
50302;BME280;36550;50.472;19.744;2022-08-19T08:19:37;97696.30;;;29.36;56.24
50302;BME280;36550;50.472;19.744;2022-08-19T08:22:22;97693.47;;;29.43;56.13
50302;BME280;36550;50.472;19.744;2022-08-19T08:25:26;97702.66;;;29.51;55.70
50302;BME280;36550;50.472;19.744;2022-08-19T08:28:10;97702.58;;;29.61;55.88
50302;BME280;36550;50.472;19.744;2022-08-19T08:30:54;97704.23;;;29.69;55.49
50302;BME280;36550;50.472;19.744;2022-08-19T08:33:39;97702.45;;;29.81;55.16
50302;BME280;36550;50.472;19.744;2022-08-19T08:36:25;97698.78;;;30.00;54.81
50302;BME280;36550;50.472;19.744;2022-08-19T08:39:13;97702.99;;;30.14;54.31
50302;BME280;36550;50.472;19.744;2022-08-19T08:42:23;97714.33;;;30.27;53.53
50302;BME280;36550;50.472;19.744;2022-08-19T08:45:16;97704.73;;;30.33;53.51
50302;BME280;36550;50.472;19.744;2022-08-19T08:48:06;97699.72;;;30.35;53.03
50302;BME280;36550;50.472;19.744;2022-08-19T08:50:54;97702.92;;;30.27;51.88
50302;BME280;36550;50.472;19.744;2022-08-19T08:53:41;97699.44;;;30.27;51.52
50302;BME280;36550;50.472;19.744;2022-08-19T08:56:26;97697.10;;;30.25;51.25
50302;BME280;36550;50.472;19.744;2022-08-19T08:59:28;97698.77;;;30.34;50.97
50302;BME280;36550;50.472;19.744;2022-08-19T09:02:09;97698.25;;;30.41;48.25
50302;BME280;36550;50.472;19.744;2022-08-19T09:04:54;97698.16;;;30.55;49.21
50302;BME280;36550;50.472;19.744;2022-08-19T09:07:58;97690.09;;;30.62;47.34
50302;BME280;36550;50.472;19.744;2022-08-19T09:10:57;97693.97;;;30.64;47.91
50302;BME280;36550;50.472;19.744;2022-08-19T09:16:39;97691.81;;;30.60;45.59
50302;BME280;36550;50.472;19.744;2022-08-19T09:19:23;97687.62;;;30.66;46.17
50302;BME280;36550;50.472;19.744;2022-08-19T09:22:07;97694.22;;;30.69;45.49
50302;BME280;36550;50.472;19.744;2022-08-19T09:24:53;97687.78;;;30.64;44.84
50302;BME280;36550;50.472;19.744;2022-08-19T09:27:39;97687.17;;;30.61;44.53
50302;BME280;36550;50.472;19.744;2022-08-19T09:30:27;97686.16;;;30.52;45.89
50302;BME280;36550;50.472;19.744;2022-08-19T09:33:13;97684.16;;;30.45;44.64
50302;BME280;36550;50.472;19.744;2022-08-19T09:36:05;97679.08;;;30.40;44.40
50302;BME280;36550;50.472;19.744;2022-08-19T09:38:52;97682.55;;;30.37;43.52
50302;BME280;36550;50.472;19.744;2022-08-19T09:41:37;97680.92;;;30.32;44.49
50302;BME280;36550;50.472;19.744;2022-08-19T09:44:21;97676.25;;;30.29;44.71
50302;BME280;36550;50.472;19.744;2022-08-19T09:47:05;97679.54;;;30.29;44.49
50302;BME280;36550;50.472;19.744;2022-08-19T09:49:50;97669.84;;;30.24;44.69
50302;BME280;36550;50.472;19.744;2022-08-19T09:52:34;97668.46;;;30.21;44.43
50302;BME280;36550;50.472;19.744;2022-08-19T09:55:20;97675.05;;;30.23;44.69
50302;BME280;36550;50.472;19.744;2022-08-19T09:58:04;97672.38;;;30.27;44.16
50302;BME280;36550;50.472;19.744;2022-08-19T10:00:48;97675.11;;;30.30;42.82
50302;BME280;36550;50.472;19.744;2022-08-19T10:03:34;97668.31;;;30.47;41.94
50302;BME280;36550;50.472;19.744;2022-08-19T10:06:20;97670.92;;;30.61;40.82
50302;BME280;36550;50.472;19.744;2022-08-19T10:09:06;97665.03;;;30.72;41.63
50302;BME280;36550;50.472;19.744;2022-08-19T10:11:51;97659.77;;;30.69;41.64
50302;BME280;36550;50.472;19.744;2022-08-19T10:14:36;97664.02;;;30.67;42.06
50302;BME280;36550;50.472;19.744;2022-08-19T10:17:21;97661.31;;;30.67;41.45
50302;BME280;36550;50.472;19.744;2022-08-19T10:20:05;97665.08;;;30.55;42.37
50302;BME280;36550;50.472;19.744;2022-08-19T10:22:50;97661.30;;;30.39;42.82
50302;BME280;36550;50.472;19.744;2022-08-19T10:25:34;97660.01;;;30.29;42.93
50302;BME280;36550;50.472;19.744;2022-08-19T10:28:18;97665.39;;;30.26;43.15
50302;BME280;36550;50.472;19.744;2022-08-19T10:31:04;97657.42;;;30.20;43.37
50302;BME280;36550;50.472;19.744;2022-08-19T10:33:51;97652.52;;;30.12;43.22
50302;BME280;36550;50.472;19.744;2022-08-19T10:36:40;97656.55;;;30.08;43.13
50302;BME280;36550;50.472;19.744;2022-08-19T10:39:25;97665.44;;;30.09;43.45
50302;BME280;36550;50.472;19.744;2022-08-19T10:42:10;97665.28;;;30.11;43.43
50302;BME280;36550;50.472;19.744;2022-08-19T10:44:56;97660.61;;;30.08;43.47
50302;BME280;36550;50.472;19.744;2022-08-19T10:47:41;97662.11;;;30.02;43.81
50302;BME280;36550;50.472;19.744;2022-08-19T10:50:25;97661.89;;;30.01;43.93
50302;BME280;36550;50.472;19.744;2022-08-19T10:53:28;97658.45;;;30.04;43.96
50302;BME280;36550;50.472;19.744;2022-08-19T10:56:12;97657.09;;;30.04;43.89
50302;BME280;36550;50.472;19.744;2022-08-19T10:59:16;97653.73;;;29.98;43.99
50302;BME280;36550;50.472;19.744;2022-08-19T11:02:07;97654.95;;;30.04;43.67
50302;BME280;36550;50.472;19.744;2022-08-19T11:04:53;97656.70;;;30.02;42.80
50302;BME280;36550;50.472;19.744;2022-08-19T11:07:39;97649.56;;;30.07;43.28
50302;BME280;36550;50.472;19.744;2022-08-19T11:10:23;97644.98;;;30.11;41.79
50302;BME280;36550;50.472;19.744;2022-08-19T11:13:08;97648.43;;;30.08;42.71
50302;BME280;36550;50.472;19.744;2022-08-19T11:16:00;97651.03;;;29.98;43.47
50302;BME280;36550;50.472;19.744;2022-08-19T11:18:49;97651.03;;;29.98;43.47
50302;BME280;36550;50.472;19.744;2022-08-19T11:21:38;97649.64;;;29.94;41.90
50302;BME280;36550;50.472;19.744;2022-08-19T11:24:25;97646.16;;;29.93;42.95
50302;BME280;36550;50.472;19.744;2022-08-19T11:27:09;97647.16;;;29.95;42.94
50302;BME280;36550;50.472;19.744;2022-08-19T11:29:54;97641.89;;;29.92;43.06
50302;BME280;36550;50.472;19.744;2022-08-19T11:32:39;97635.41;;;30.01;42.86
50302;BME280;36550;50.472;19.744;2022-08-19T11:35:24;97632.52;;;30.03;42.76
50302;BME280;36550;50.472;19.744;2022-08-19T11:38:09;97627.66;;;29.99;42.98
50302;BME280;36550;50.472;19.744;2022-08-19T11:40:59;97621.84;;;29.97;42.92
50302;BME280;36550;50.472;19.744;2022-08-19T11:43:45;97620.12;;;29.99;43.12
50302;BME280;36550;50.472;19.744;2022-08-19T11:46:29;97614.09;;;29.96;42.96
50302;BME280;36550;50.472;19.744;2022-08-19T11:49:15;97616.44;;;29.97;43.17
50302;BME280;36550;50.472;19.744;2022-08-19T11:52:02;97609.13;;;30.01;43.02
50302;BME280;36550;50.472;19.744;2022-08-19T11:54:46;97608.02;;;30.06;42.87
50302;BME280;36550;50.472;19.744;2022-08-19T11:57:31;97604.91;;;30.07;42.83
50302;BME280;36550;50.472;19.744;2022-08-19T12:00:15;97608.57;;;30.05;42.73
50302;BME280;36550;50.472;19.744;2022-08-19T12:03:00;97602.20;;;30.07;43.01
50302;BME280;36550;50.472;19.744;2022-08-19T12:05:45;97605.96;;;30.16;42.76
50302;BME280;36550;50.472;19.744;2022-08-19T12:08:29;97603.62;;;30.14;42.80
50302;BME280;36550;50.472;19.744;2022-08-19T12:11:14;97608.45;;;30.11;42.64
50302;BME280;36550;50.472;19.744;2022-08-19T12:13:58;97607.56;;;30.21;42.05
50302;BME280;36550;50.472;19.744;2022-08-19T12:16:44;97612.81;;;30.27;41.88
50302;BME280;36550;50.472;19.744;2022-08-19T12:19:30;97614.41;;;30.31;41.86
50302;BME280;36550;50.472;19.744;2022-08-19T12:22:14;97606.75;;;30.37;41.69
50302;BME280;36550;50.472;19.744;2022-08-19T12:24:59;97616.97;;;30.34;41.64
50302;BME280;36550;50.472;19.744;2022-08-19T12:27:43;97613.80;;;30.28;41.86
50302;BME280;36550;50.472;19.744;2022-08-19T12:30:28;97604.91;;;30.28;42.14
50302;BME280;36550;50.472;19.744;2022-08-19T12:33:13;97611.67;;;30.28;42.87
50302;BME280;36550;50.472;19.744;2022-08-19T12:36:02;97616.30;;;30.27;43.02
50302;BME280;36550;50.472;19.744;2022-08-19T12:38:49;97621.89;;;30.25;43.46
50302;BME280;36550;50.472;19.744;2022-08-19T12:41:33;97613.12;;;30.39;43.59
50302;BME280;36550;50.472;19.744;2022-08-19T12:44:17;97619.20;;;30.49;43.62
50302;BME280;36550;50.472;19.744;2022-08-19T12:47:02;97623.63;;;30.47;43.95
50302;BME280;36550;50.472;19.744;2022-08-19T12:49:48;97619.20;;;30.49;44.30
50302;BME280;36550;50.472;19.744;2022-08-19T12:52:32;97619.17;;;30.45;43.84
50302;BME280;36550;50.472;19.744;2022-08-19T12:55:17;97618.98;;;30.44;43.77
50302;BME280;36550;50.472;19.744;2022-08-19T12:58:02;97613.97;;;30.46;43.57
50302;BME280;36550;50.472;19.744;2022-08-19T13:00:47;97619.45;;;30.33;43.58
50302;BME280;36550;50.472;19.744;2022-08-19T13:03:32;97614.75;;;30.26;43.82
50302;BME280;36550;50.472;19.744;2022-08-19T13:06:16;97608.52;;;30.22;44.06
50302;BME280;36550;50.472;19.744;2022-08-19T13:09:00;97612.61;;;30.26;44.47
50302;BME280;36550;50.472;19.744;2022-08-19T13:11:44;97608.92;;;30.45;44.26
50302;BME280;36550;50.472;19.744;2022-08-19T13:14:28;97611.97;;;30.67;44.10
50302;BME280;36550;50.472;19.744;2022-08-19T13:17:14;97608.34;;;30.77;43.83
50302;BME280;36550;50.472;19.744;2022-08-19T13:19:59;97602.81;;;30.86;43.44
50302;BME280;36550;50.472;19.744;2022-08-19T13:22:43;97600.19;;;31.04;43.69
50302;BME280;36550;50.472;19.744;2022-08-19T13:25:28;97604.50;;;31.13;43.39
50302;BME280;36550;50.472;19.744;2022-08-19T13:28:12;97601.56;;;31.08;43.74
50302;BME280;36550;50.472;19.744;2022-08-19T13:30:56;97594.36;;;30.99;43.68
50302;BME280;36550;50.472;19.744;2022-08-19T13:33:59;97595.13;;;30.92;43.60
50302;BME280;36550;50.472;19.744;2022-08-19T13:36:43;97595.14;;;30.96;43.25
50302;BME280;36550;50.472;19.744;2022-08-19T13:39:27;97588.37;;;30.96;43.54
50302;BME280;36550;50.472;19.744;2022-08-19T13:42:12;97591.61;;;30.92;43.64
50302;BME280;36550;50.472;19.744;2022-08-19T13:44:57;97592.76;;;30.90;43.54
50302;BME280;36550;50.472;19.744;2022-08-19T13:47:41;97592.01;;;30.94;43.66
50302;BME280;36550;50.472;19.744;2022-08-19T13:50:30;97592.06;;;31.04;43.61
50302;BME280;36550;50.472;19.744;2022-08-19T13:53:18;97593.09;;;31.17;43.05
50302;BME280;36550;50.472;19.744;2022-08-19T13:56:08;97590.02;;;31.22;42.87
50302;BME280;36550;50.472;19.744;2022-08-19T13:58:53;97589.83;;;31.28;42.72
50302;BME280;36550;50.472;19.744;2022-08-19T14:01:38;97592.57;;;31.35;42.59
50302;BME280;36550;50.472;19.744;2022-08-19T14:04:23;97589.68;;;31.34;42.58
50302;BME280;36550;50.472;19.744;2022-08-19T14:07:07;97590.23;;;31.34;42.45
50302;BME280;36550;50.472;19.744;2022-08-19T14:09:53;97587.16;;;31.39;42.63
50302;BME280;36550;50.472;19.744;2022-08-19T14:12:38;97589.88;;;31.39;42.01
50302;BME280;36550;50.472;19.744;2022-08-19T14:15:23;97590.47;;;31.42;42.59
50302;BME280;36550;50.472;19.744;2022-08-19T14:18:07;97594.69;;;31.32;42.57
50302;BME280;36550;50.472;19.744;2022-08-19T14:20:52;97584.37;;;31.17;42.56
50302;BME280;36550;50.472;19.744;2022-08-19T14:23:37;97584.09;;;30.95;42.08
50302;BME280;36550;50.472;19.744;2022-08-19T14:26:22;97585.57;;;30.85;43.00
50302;BME280;36550;50.472;19.744;2022-08-19T14:29:06;97587.84;;;30.76;43.35
50302;BME280;36550;50.472;19.744;2022-08-19T14:31:51;97588.94;;;30.67;43.31
50302;BME280;36550;50.472;19.744;2022-08-19T14:34:35;97591.45;;;30.63;43.49